Time;durP1;ratioP1;P1;durP2;ratioP2;P2;SDS_P1;SDS_P2;PMS_P1;PMS_P2;Temp;Humidity;BMP_temperature;BMP_pressure;BME280_temperature;BME280_humidity;BME280_pressure;Samples;Min_cycle;Max_cycle;Signal;HPM_P1;HPM_P2
2022/08/15 00:01:39;;;;;;;3.65;3.35;;;;;;;18.84;69.68;94273.25;5097270;28;20299;-69
2022/08/15 00:04:09;;;;;;;3.88;3.60;;;;;;;18.80;69.90;94272.53;5097758;28;20231;-69
2022/08/15 00:06:41;;;;;;;4.50;4.10;;;;;;;18.76;69.98;94275.41;5096946;28;20659;-69
2022/08/15 00:09:13;;;;;;;4.55;4.13;;;;;;;18.76;70.50;94278.19;5097164;28;20253;-69
2022/08/15 00:11:43;;;;;;;5.18;4.70;;;;;;;18.71;70.84;94285.06;5097124;28;20193;-69
2022/08/15 00:14:15;;;;;;;5.50;5.00;;;;;;;18.69;70.76;94281.84;5097156;28;20196;-69
2022/08/15 00:16:45;;;;;;;5.95;5.45;;;;;;;18.69;71.28;94281.84;5098089;28;20234;-69
2022/08/15 00:19:16;;;;;;;6.47;5.97;;;;;;;18.65;71.57;94281.13;5097745;28;20176;-69
2022/08/15 00:21:47;;;;;;;6.60;6.10;;;;;;;18.64;71.79;94279.56;5096971;28;20199;-69
2022/08/15 00:24:17;;;;;;;6.70;6.20;;;;;;;18.63;71.82;94277.97;5097364;28;20207;-69
2022/08/15 00:26:48;;;;;;;6.70;6.07;;;;;;;18.60;71.70;94270.44;5097779;28;20216;-69
2022/08/15 00:29:19;;;;;;;7.45;6.75;;;;;;;18.57;72.14;94268.50;5097515;28;20195;-69
2022/08/15 00:31:48;;;;;;;6.80;6.20;;;;;;;18.53;72.17;94281.72;5096135;28;20208;-69
2022/08/15 00:34:18;;;;;;;6.07;5.57;;;;;;;18.49;72.07;94276.22;5097762;28;20200;-69
2022/08/15 00:36:49;;;;;;;6.43;5.82;;;;;;;18.47;72.05;94272.25;5097713;28;20184;-69
2022/08/15 00:39:19;;;;;;;5.95;5.45;;;;;;;18.41;72.33;94269.16;5096179;28;20201;-69
2022/08/15 00:41:50;;;;;;;6.80;6.20;;;;;;;18.41;71.91;94269.16;5097253;28;20519;-69
2022/08/15 00:44:23;;;;;;;6.68;6.05;;;;;;;18.42;72.05;94269.94;5097026;28;20220;-69
2022/08/15 00:46:52;;;;;;;6.47;5.88;;;;;;;18.40;72.13;94261.97;5096261;28;20277;-69
2022/08/15 00:49:21;;;;;;;6.97;6.38;;;;;;;18.42;71.77;94262.34;5096509;28;20203;-69
2022/08/15 00:51:52;;;;;;;6.72;6.13;;;;;;;18.43;72.17;94266.72;5097293;28;20184;-69
2022/08/15 00:54:25;;;;;;;6.97;6.38;;;;;;;18.43;71.83;94265.94;5096899;28;20196;-68
2022/08/15 00:56:57;;;;;;;6.43;5.93;;;;;;;18.42;71.95;94261.56;5096120;28;20669;-69
2022/08/15 00:59:34;;;;;;;6.90;6.25;;;;;;;18.43;71.80;94258.34;5095998;28;20203;-69
2022/08/15 01:02:07;;;;;;;6.80;6.15;;;;;;;18.41;71.71;94258.00;5096067;28;20224;-69
2022/08/15 01:04:38;;;;;;;7.00;6.30;;;;;;;18.42;71.98;94250.41;5096830;28;20219;-69
2022/08/15 01:07:07;;;;;;;6.63;6.13;;;;;;;18.44;72.14;94251.53;5097099;28;20208;-69
2022/08/15 01:09:36;;;;;;;7.18;6.57;;;;;;;18.45;71.71;94249.56;5096232;28;20199;-69
2022/08/15 01:12:07;;;;;;;6.35;5.75;;;;;;;18.43;71.88;94243.59;5096636;28;20504;-69
2022/08/15 01:14:41;;;;;;;6.47;5.97;;;;;;;18.43;72.26;94246.38;5096896;28;20199;-69
2022/08/15 01:17:10;;;;;;;6.38;5.88;;;;;;;18.44;72.04;94229.19;5096933;28;20191;-69
2022/08/15 01:19:40;;;;;;;7.18;6.57;;;;;;;18.47;71.72;94238.75;5096767;28;20180;-69
2022/08/15 01:22:34;;;;;;;6.22;5.72;;;;;;;18.45;71.71;94235.59;5096773;28;20193;-69
2022/08/15 01:25:06;;;;;;;5.95;5.43;;;;;;;18.46;71.52;94239.97;5096571;28;20176;-69
2022/08/15 01:27:36;;;;;;;6.20;5.70;;;;;;;18.48;71.21;94245.91;5096846;28;20222;-69
2022/08/15 01:30:07;;;;;;;5.78;5.38;;;;;;;18.49;71.88;94253.09;5096360;28;20268;-69
2022/08/15 01:32:34;;;;;;;6.05;5.55;;;;;;;18.48;72.12;94257.06;5095823;28;20228;-68
2022/08/15 01:35:03;;;;;;;6.10;5.60;;;;;;;18.45;72.74;94253.13;5095517;28;20200;-68
2022/08/15 01:37:32;;;;;;;6.05;5.55;;;;;;;18.44;72.62;94250.75;5096188;28;20512;-68
2022/08/15 01:40:08;;;;;;;6.10;5.53;;;;;;;18.42;72.55;94253.97;5095469;28;20196;-68
2022/08/15 01:42:42;;;;;;;5.70;5.30;;;;;;;18.42;73.12;94256.78;5095735;28;20196;-68
2022/08/15 01:45:11;;;;;;;5.97;5.47;;;;;;;18.41;72.73;94269.16;5096277;28;20258;-69
2022/08/15 01:47:44;;;;;;;6.10;5.47;;;;;;;18.41;72.33;94255.19;5096163;28;20219;-68
2022/08/15 01:50:17;;;;;;;6.07;5.57;;;;;;;18.41;71.77;94259.97;5095021;28;20204;-68
2022/08/15 01:52:50;;;;;;;6.40;5.80;;;;;;;18.41;71.60;94249.63;5095286;28;20651;-69
2022/08/15 01:55:27;;;;;;;6.80;6.30;;;;;;;18.42;71.50;94247.63;5096157;28;20275;-69
2022/08/15 01:57:54;;;;;;;6.55;6.05;;;;;;;18.42;71.91;94244.81;5095684;28;20198;-69
2022/08/15 02:00:22;;;;;;;7.60;6.90;;;;;;;18.40;71.86;94242.44;5095688;28;20196;-69
2022/08/15 02:02:49;;;;;;;8.48;7.30;;;;;;;18.39;72.13;94242.88;5096050;28;20188;-70
2022/08/15 02:05:16;;;;;;;9.05;8.25;;;;;;;18.40;71.99;94241.66;5095942;28;20188;-70
2022/08/15 02:07:44;;;;;;;9.40;8.52;;;;;;;18.37;71.94;94236.91;5095947;28;20201;-70
2022/08/15 02:10:11;;;;;;;9.43;8.52;;;;;;;18.36;71.66;94238.13;5094643;28;20604;-70
2022/08/15 02:12:40;;;;;;;8.63;7.93;;;;;;;18.35;71.84;94230.97;5095427;28;20196;-70
2022/08/15 02:15:14;;;;;;;9.05;8.25;;;;;;;18.37;71.79;94236.91;5094938;28;20204;-70
2022/08/15 02:17:41;;;;;;;9.35;8.55;;;;;;;18.35;72.63;94231.75;5095304;28;20693;-70
2022/08/15 02:20:13;;;;;;;9.20;8.40;;;;;;;18.35;72.63;94240.13;5095470;28;20180;-70
2022/08/15 02:22:40;;;;;;;10.57;9.57;;;;;;;18.34;72.57;94240.53;5094666;28;20208;-70
2022/08/15 02:25:09;;;;;;;9.90;8.40;;;;;;;18.31;71.85;94255.38;5094591;28;20196;-70
2022/08/15 02:27:39;;;;;;;9.15;8.35;;;;;;;18.31;71.84;94255.38;5094484;28;20662;-70
2022/08/15 02:30:11;;;;;;;8.40;7.70;;;;;;;18.32;71.76;94248.56;5095705;28;20184;-70
2022/08/15 02:32:40;;;;;;;10.00;9.10;;;;;;;18.31;71.71;94266.53;5095841;28;20515;-70
2022/08/15 02:35:10;;;;;;;8.85;8.05;;;;;;;18.28;71.74;94268.94;5095646;28;20207;-70
2022/08/15 02:37:38;;;;;;;10.13;9.13;;;;;;;18.26;71.76;94260.22;5094666;28;20214;-70
2022/08/15 02:40:10;;;;;;;10.77;9.70;;;;;;;18.29;72.09;94264.16;5095409;28;20196;-70
2022/08/15 02:42:38;;;;;;;9.45;8.65;;;;;;;18.27;72.02;94275.75;5095443;28;20195;-70
2022/08/15 02:45:13;;;;;;;9.93;9.07;;;;;;;18.28;72.00;94276.53;5095587;28;20283;-70
2022/08/15 02:47:43;;;;;;;9.93;9.02;;;;;;;18.25;71.87;94278.16;5094922;28;20647;-70
2022/08/15 02:50:11;;;;;;;10.02;9.13;;;;;;;18.24;72.39;94276.59;5094639;28;20284;-70
2022/08/15 02:52:40;;;;;;;10.20;9.30;;;;;;;18.22;72.33;94287.38;5095416;28;20207;-70
2022/08/15 02:55:08;;;;;;;11.38;10.32;;;;;;;18.21;72.50;94296.97;5094295;28;20200;-70
2022/08/15 02:57:35;;;;;;;10.80;9.77;;;;;;;18.18;72.48;94297.00;5095277;28;20180;-70
2022/08/15 03:00:08;;;;;;;10.35;9.35;;;;;;;18.14;72.68;94287.91;5095431;28;20181;-70
2022/08/15 03:02:54;;;;;;;10.40;9.48;;;;;;;18.06;73.04;94295.59;5097508;28;20211;-71
2022/08/15 03:05:21;;;;;;;11.80;10.60;;;;;;;18.02;73.17;94292.84;5099566;28;20245;-70
2022/08/15 03:07:48;;;;;;;11.82;10.68;;;;;;;18.00;73.05;94298.03;5098374;28;20251;-70
2022/08/15 03:10:15;;;;;;;12.07;10.93;;;;;;;18.01;73.18;94291.28;5098305;28;20540;-70
2022/08/15 03:12:53;;;;;;;11.25;10.30;;;;;;;17.99;73.09;94299.25;5098048;28;20196;-70
2022/08/15 03:15:22;;;;;;;11.40;10.35;;;;;;;17.97;73.12;94310.06;5098423;28;20199;-70
2022/08/15 03:17:50;;;;;;;12.35;11.32;;;;;;;17.94;73.17;94310.13;5099238;28;20181;-70
2022/08/15 03:20:17;;;;;;;12.10;11.00;;;;;;;17.93;73.19;94309.28;5098553;28;20245;-71
2022/08/15 03:22:46;;;;;;;11.75;10.75;;;;;;;17.89;73.24;94316.94;5098470;28;20192;-71
2022/08/15 03:25:15;;;;;;;11.77;10.68;;;;;;;17.88;73.27;94326.50;5099121;28;20188;-70
2022/08/15 03:27:42;;;;;;;12.43;11.40;;;;;;;17.87;72.96;94329.72;5098390;28;20220;-70
2022/08/15 03:30:13;;;;;;;11.30;10.30;;;;;;;17.87;73.28;94330.50;5099306;28;20181;-69
2022/08/15 03:32:45;;;;;;;12.45;11.45;;;;;;;17.86;73.36;94331.69;5097671;28;20228;-69
2022/08/15 03:35:14;;;;;;;12.27;11.10;;;;;;;17.88;73.27;94329.31;5098281;28;20196;-69
2022/08/15 03:37:42;;;;;;;13.25;12.15;;;;;;;17.91;72.96;94333.25;5098622;28;20184;-69
2022/08/15 03:40:14;;;;;;;14.02;12.73;;;;;;;17.93;72.78;94330.81;5099293;28;20612;-70
2022/08/15 03:42:51;;;;;;;13.10;11.90;;;;;;;17.97;72.98;94335.19;5098324;28;20191;-69
2022/08/15 03:45:20;;;;;;;13.75;12.50;;;;;;;17.92;72.96;94330.03;5098681;28;20188;-69
2022/08/15 03:47:48;;;;;;;13.50;12.20;;;;;;;17.93;73.02;94323.25;5097687;28;20209;-70
2022/08/15 03:50:17;;;;;;;12.90;11.70;;;;;;;17.96;73.31;94330.78;5098252;28;20216;-69
2022/08/15 03:52:52;;;;;;;13.02;11.82;;;;;;;18.01;72.98;94335.09;5098319;28;20629;-71
2022/08/15 03:55:20;;;;;;;13.52;12.23;;;;;;;18.03;73.35;94327.13;5098713;28;20500;-67
2022/08/15 03:57:47;;;;;;;13.57;12.38;;;;;;;18.06;73.07;94339.44;5097498;28;20224;-68
2022/08/15 04:00:17;;;;;;;14.45;13.05;;;;;;;18.13;73.11;94340.13;5098191;28;20199;-68
2022/08/15 04:02:44;;;;;;;15.02;13.48;;;;;;;18.22;72.61;94337.59;5098432;28;20192;-68
2022/08/15 04:05:12;;;;;;;14.70;12.90;;;;;;;18.27;72.63;94339.94;5097224;28;20197;-68
2022/08/15 04:07:41;;;;;;;15.02;13.50;;;;;;;18.24;72.42;94340.00;5097271;28;20216;-68
2022/08/15 04:10:11;;;;;;;14.07;12.77;;;;;;;18.21;72.78;94340.81;5096901;28;20270;-68
2022/08/15 04:12:41;;;;;;;14.88;13.40;;;;;;;18.22;72.78;94336.81;5097555;28;20188;-68
2022/08/15 04:15:15;;;;;;;15.00;13.50;;;;;;;18.20;72.83;94339.25;5097755;28;20181;-68
2022/08/15 04:17:43;;;;;;;15.80;13.90;;;;;;;18.15;73.14;94337.69;5097985;28;20195;-68
2022/08/15 04:20:11;;;;;;;16.08;14.43;;;;;;;18.16;73.11;94335.72;5097494;28;20227;-68
2022/08/15 04:22:42;;;;;;;17.55;15.85;;;;;;;18.16;73.32;94332.94;5097863;28;20184;-68
2022/08/15 04:25:13;;;;;;;16.27;14.70;;;;;;;18.18;73.35;94331.28;5097920;28;20185;-68
2022/08/15 04:27:40;;;;;;;16.15;14.60;;;;;;;18.18;73.48;94330.50;5096990;28;20220;-68
2022/08/15 04:30:12;;;;;;;16.42;14.82;;;;;;;18.18;73.40;94317.34;5097903;28;20207;-68
2022/08/15 04:32:39;;;;;;;17.10;15.30;;;;;;;18.22;73.51;94320.06;5096968;28;20202;-68
2022/08/15 04:35:08;;;;;;;16.83;15.18;;;;;;;18.25;73.32;94322.03;5097697;28;20180;-68
2022/08/15 04:37:39;;;;;;;17.33;15.70;;;;;;;18.25;73.45;94320.03;5096670;28;20189;-68
2022/08/15 04:40:12;;;;;;;16.90;14.70;;;;;;;18.29;73.22;94317.19;5098325;28;20185;-68
2022/08/15 04:42:51;;;;;;;18.08;16.13;;;;;;;18.31;73.21;94328.72;5096547;28;20200;-68
2022/08/15 04:45:18;;;;;;;18.33;16.50;;;;;;;18.32;73.36;94324.72;5096553;28;20604;-68
2022/08/15 04:47:47;;;;;;;19.25;16.88;;;;;;;18.35;73.34;94326.66;5096197;28;20219;-68
2022/08/15 04:50:14;;;;;;;18.65;16.42;;;;;;;18.36;73.33;94319.09;5097427;28;20241;-68
2022/08/15 04:52:47;;;;;;;18.85;16.80;;;;;;;18.40;73.77;94330.97;5097310;28;20204;-68
2022/08/15 04:55:16;;;;;;;18.90;16.95;;;;;;;18.42;73.59;94328.56;5096570;28;20287;-68
2022/08/15 04:57:43;;;;;;;20.23;17.80;;;;;;;18.44;73.70;94326.91;5096818;28;20599;-69
2022/08/15 05:00:13;;;;;;;20.42;18.33;;;;;;;18.45;73.43;94334.09;5096970;28;20644;-68
2022/08/15 05:02:40;;;;;;;20.75;18.65;;;;;;;18.49;73.38;94334.06;5097197;28;20185;-68
2022/08/15 05:05:10;;;;;;;19.08;17.08;;;;;;;18.52;73.35;94336.78;5096342;28;20211;-68
2022/08/15 05:07:37;;;;;;;19.70;17.67;;;;;;;18.55;73.29;94335.13;5079390;28;20223;-68
2022/08/15 05:10:08;;;;;;;20.00;17.90;;;;;;;18.60;73.16;94328.31;5097047;28;20208;-68
2022/08/15 05:12:37;;;;;;;18.35;16.48;;;;;;;18.63;73.37;94328.25;5097006;28;20180;-68
2022/08/15 05:15:08;;;;;;;17.77;16.08;;;;;;;18.66;72.92;94323.81;5097133;28;20196;-68
2022/08/15 05:17:35;;;;;;;17.80;16.05;;;;;;;18.68;72.99;94322.19;5096502;28;20246;-68
2022/08/15 05:20:02;;;;;;;18.85;16.95;;;;;;;18.70;72.97;94321.75;5095938;28;20220;-68
2022/08/15 05:22:29;;;;;;;18.40;16.60;;;;;;;18.72;72.96;94319.34;5096575;28;20181;-68
2022/08/15 05:24:57;;;;;;;19.35;17.45;;;;;;;18.74;72.49;94322.53;5096633;28;20246;-68
2022/08/15 05:27:24;;;;;;;18.83;16.92;;;;;;;18.74;72.06;94322.53;5095746;28;20635;-68
2022/08/15 05:29:52;;;;;;;17.60;15.77;;;;;;;18.73;72.57;94321.72;5095900;28;20200;-68
2022/08/15 05:32:20;;;;;;;18.10;16.35;;;;;;;18.71;72.24;94326.94;5096294;28;20612;-68
2022/08/15 05:34:48;;;;;;;18.50;16.63;;;;;;;18.73;72.12;94330.09;5096629;28;20208;-68
2022/08/15 05:37:17;;;;;;;18.85;17.00;;;;;;;18.75;72.09;94324.88;5095656;28;20196;-68
2022/08/15 05:39:45;;;;;;;18.83;16.92;;;;;;;18.76;71.97;94328.47;5095486;28;20257;-68
2022/08/15 05:42:23;;;;;;;18.38;16.45;;;;;;;18.81;72.08;94330.78;5096393;28;20184;-69
2022/08/15 05:45:00;;;;;;;19.45;17.52;;;;;;;18.83;72.37;94333.16;5095901;28;20232;-68
2022/08/15 05:47:34;;;;;;;18.45;16.55;;;;;;;18.87;71.96;94331.09;5095336;28;20266;-68
2022/08/15 05:50:06;;;;;;;20.30;18.35;;;;;;;18.91;71.90;94331.81;5095324;28;20211;-68
2022/08/15 05:52:40;;;;;;;20.13;18.02;;;;;;;18.90;72.02;94338.63;5095763;28;20192;-68
2022/08/15 05:55:19;;;;;;;19.42;17.42;;;;;;;18.91;71.89;94340.19;5095382;28;20188;-68
2022/08/15 05:58:00;;;;;;;20.15;17.80;;;;;;;18.92;72.10;94344.59;5095100;28;20196;-68
2022/08/15 06:00:31;;;;;;;19.98;17.98;;;;;;;18.91;71.90;94348.56;5095790;28;20200;-68
2022/08/15 06:03:09;;;;;;;19.30;17.33;;;;;;;18.91;72.05;94343.78;5096199;28;20596;-68
2022/08/15 06:05:43;;;;;;;19.08;17.15;;;;;;;18.94;71.99;94348.53;5096191;28;20195;-69
2022/08/15 06:08:17;;;;;;;20.60;18.50;;;;;;;18.97;71.58;94336.50;5094810;28;20226;-68
2022/08/15 06:10:45;;;;;;;20.27;18.17;;;;;;;18.98;71.68;94342.88;5096039;28;20195;-69
2022/08/15 06:13:15;;;;;;;21.27;19.23;;;;;;;18.98;71.60;94349.25;5095447;28;20200;-68
2022/08/15 06:15:48;;;;;;;18.75;16.85;;;;;;;19.01;71.56;94339.22;5095243;28;20249;-68
2022/08/15 06:18:17;;;;;;;19.85;17.75;;;;;;;19.07;71.73;94331.16;5095723;28;20203;-68
2022/08/15 06:20:48;;;;;;;19.52;17.63;;;;;;;19.09;71.95;94335.09;5096012;28;20184;-68
2022/08/15 06:23:23;;;;;;;20.25;18.10;;;;;;;19.10;71.83;94333.91;5095728;28;20177;-68
2022/08/15 06:26:11;;;;;;;19.38;17.48;;;;;;;19.15;71.47;94329.81;5094595;28;20257;-68
2022/08/15 06:28:49;;;;;;;20.13;17.58;;;;;;;19.19;71.59;94338.94;5095166;28;20212;-68
2022/08/15 06:31:27;;;;;;;19.60;17.73;;;;;;;19.20;71.08;94332.91;5094981;28;20207;-68
2022/08/15 06:34:04;;;;;;;20.17;18.17;;;;;;;19.21;70.82;94336.50;5094729;28;20196;-68
2022/08/15 06:36:40;;;;;;;19.33;17.35;;;;;;;19.19;70.75;94341.72;5094154;28;20203;-68
2022/08/15 06:39:20;;;;;;;20.48;18.42;;;;;;;19.22;70.81;94343.66;5095548;28;20210;-68
2022/08/15 06:41:59;;;;;;;20.27;18.15;;;;;;;19.22;70.79;94340.88;5094408;28;20654;-68
2022/08/15 06:44:27;;;;;;;23.02;20.73;;;;;;;19.18;70.71;94345.75;5094236;28;20236;-68
2022/08/15 06:47:03;;;;;;;22.67;19.83;;;;;;;19.16;70.36;94346.16;5094475;28;20197;-68
2022/08/15 06:49:33;;;;;;;22.13;19.80;;;;;;;19.17;70.76;94358.94;5095387;28;20199;-68
2022/08/15 06:52:00;;;;;;;21.75;18.95;;;;;;;19.19;71.06;94352.91;5095354;28;20185;-68
2022/08/15 06:54:28;;;;;;;21.98;19.67;;;;;;;19.19;71.01;94350.91;5094618;28;20199;-68
2022/08/15 06:57:00;;;;;;;23.42;20.92;;;;;;;19.23;71.22;94354.41;5094364;28;20207;-68
2022/08/15 06:59:34;;;;;;;21.92;19.63;;;;;;;19.26;71.58;94360.38;5095532;28;20180;-68
2022/08/15 07:02:16;;;;;;;21.13;18.92;;;;;;;19.24;71.46;94364.41;5094326;28;20198;-68
2022/08/15 07:04:53;;;;;;;21.35;19.13;;;;;;;19.27;70.86;94359.16;5095105;28;20257;-68
2022/08/15 07:07:26;;;;;;;21.10;18.83;;;;;;;19.29;71.32;94360.31;5095390;28;20564;-68
2022/08/15 07:09:57;;;;;;;21.75;19.55;;;;;;;19.29;71.34;94351.94;5094174;28;20224;-68
2022/08/15 07:12:27;;;;;;;21.00;18.85;;;;;;;19.30;71.25;94353.50;5094258;28;20192;-68
2022/08/15 07:14:59;;;;;;;21.10;18.90;;;;;;;19.30;70.84;94356.31;5094262;28;20649;-68
2022/08/15 07:17:34;;;;;;;21.85;19.52;;;;;;;19.34;71.35;94356.25;5094847;28;20187;-68
2022/08/15 07:20:01;;;;;;;21.30;19.10;;;;;;;19.36;71.13;94351.03;5094817;28;20176;-68
2022/08/15 07:22:29;;;;;;;22.15;19.88;;;;;;;19.36;70.63;94349.00;5094484;28;20196;-68
2022/08/15 07:24:56;;;;;;;20.80;18.60;;;;;;;19.39;71.19;94350.16;5095190;28;20261;-68
2022/08/15 07:27:31;;;;;;;21.67;19.48;;;;;;;19.42;70.72;94357.69;5095117;28;20196;-68
2022/08/15 07:30:00;;;;;;;20.75;18.55;;;;;;;19.44;70.92;94346.88;5094582;28;20204;-68
2022/08/15 07:32:31;;;;;;;21.02;18.55;;;;;;;19.48;70.65;94353.19;5094059;28;20192;-68
2022/08/15 07:35:04;;;;;;;20.10;18.00;;;;;;;19.55;70.90;94352.28;5093060;28;20204;-68
2022/08/15 07:37:34;;;;;;;19.85;17.88;;;;;;;19.61;71.30;94356.94;5094965;28;20276;-68
2022/08/15 07:40:07;;;;;;;19.88;17.85;;;;;;;19.68;70.40;94356.84;5093725;28;20193;-68
2022/08/15 07:42:41;;;;;;;20.35;17.85;;;;;;;19.76;70.87;94359.50;5094997;28;20185;-68
2022/08/15 07:45:17;;;;;;;21.30;18.90;;;;;;;19.79;70.30;94361.41;5094947;28;20200;-68
2022/08/15 07:47:59;;;;;;;21.30;19.20;;;;;;;19.80;70.00;94368.59;5093577;28;20192;-68
2022/08/15 07:50:34;;;;;;;20.73;18.63;;;;;;;19.81;69.78;94370.97;5098528;28;20200;-68
2022/08/15 07:53:10;;;;;;;20.02;17.98;;;;;;;19.81;69.82;94370.97;5098700;28;20190;-68
2022/08/15 07:55:38;;;;;;;20.83;18.73;;;;;;;19.83;69.86;94368.53;5097695;28;20191;-68
2022/08/15 07:58:09;;;;;;;20.23;18.20;;;;;;;19.85;69.76;94370.91;5097493;28;20291;-68
2022/08/15 08:00:38;;;;;;;20.45;18.30;;;;;;;19.88;69.84;94364.44;5097750;28;20189;-68
2022/08/15 08:03:13;;;;;;;22.17;19.65;;;;;;;19.92;69.98;94371.53;5098232;28;20185;-68
2022/08/15 08:05:53;;;;;;;21.20;19.00;;;;;;;19.96;69.98;94368.66;5097454;28;20196;-69
2022/08/15 08:08:21;;;;;;;18.70;16.90;;;;;;;20.01;69.77;94364.56;5098420;28;20298;-69
2022/08/15 08:10:51;;;;;;;19.50;17.63;;;;;;;20.06;69.85;94378.09;5098085;28;20185;-68
2022/08/15 08:13:39;;;;;;;18.45;16.55;;;;;;;20.11;69.80;94374.78;5098313;28;20181;-68
2022/08/15 08:16:15;;;;;;;19.00;17.10;;;;;;;20.16;70.29;94380.66;5098158;28;20189;-68
2022/08/15 08:18:49;;;;;;;18.00;16.30;;;;;;;20.26;69.82;94383.66;5098173;28;20181;-68
2022/08/15 08:21:20;;;;;;;18.75;16.75;;;;;;;20.36;69.07;94379.84;5098294;28;20196;-68
2022/08/15 08:23:50;;;;;;;18.77;16.90;;;;;;;20.45;69.23;94371.66;5096791;28;20196;-68
2022/08/15 08:26:26;;;;;;;20.38;18.27;;;;;;;20.53;68.52;94373.09;5098162;28;20207;-68
2022/08/15 08:29:10;;;;;;;19.30;17.38;;;;;;;20.51;68.28;94369.94;5097600;28;20204;-68
2022/08/15 08:31:46;;;;;;;20.63;18.52;;;;;;;20.51;68.70;94374.75;5096764;28;20203;-69
2022/08/15 08:34:19;;;;;;;19.85;17.83;;;;;;;20.54;68.43;94371.09;5097619;28;20509;-68
2022/08/15 08:36:55;;;;;;;21.13;19.02;;;;;;;20.58;68.14;94375.38;5096579;28;20200;-68
2022/08/15 08:39:33;;;;;;;21.02;19.02;;;;;;;20.65;67.08;94358.41;5097706;28;20227;-68
2022/08/15 08:42:08;;;;;;;19.95;18.02;;;;;;;20.70;67.61;94376.75;5096810;28;20192;-68
2022/08/15 08:44:42;;;;;;;22.38;20.25;;;;;;;20.78;66.93;94375.34;5097289;28;20639;-68
2022/08/15 08:47:29;;;;;;;21.33;19.13;;;;;;;20.87;65.98;94369.91;5097194;28;20181;-68
2022/08/15 08:50:08;;;;;;;20.50;18.40;;;;;;;20.95;65.53;94369.75;5097386;28;20215;-68
2022/08/15 08:52:41;;;;;;;20.13;18.13;;;;;;;20.96;65.97;94377.72;5097130;28;20210;-68
2022/08/15 08:55:12;;;;;;;20.27;18.27;;;;;;;20.90;65.83;94371.06;5097388;28;20188;-68
2022/08/15 08:57:46;;;;;;;20.27;18.38;;;;;;;21.02;65.73;94370.34;5097289;28;20197;-68
2022/08/15 09:00:16;;;;;;;21.00;18.90;;;;;;;21.20;64.86;94366.34;5096122;28;20293;-68
2022/08/15 09:02:47;;;;;;;20.17;18.23;;;;;;;21.30;63.62;94365.28;5095735;28;20196;-68
2022/08/15 09:05:30;;;;;;;20.33;18.33;;;;;;;21.45;64.60;94358.09;5097009;28;20188;-68
2022/08/15 09:08:02;;;;;;;19.88;17.88;;;;;;;21.50;64.38;94349.16;5096116;28;20196;-68
2022/08/15 09:10:32;;;;;;;19.35;17.50;;;;;;;21.54;64.47;94346.28;5096970;28;20640;-68
2022/08/15 09:15:47;;;;;;;19.55;17.45;;;;;;;21.54;64.62;94349.84;5095656;28;20242;-69
2022/08/15 09:18:19;;;;;;;19.10;17.33;;;;;;;21.48;63.55;94339.59;5096884;28;20208;-68
2022/08/15 09:20:49;;;;;;;20.08;18.15;;;;;;;21.43;63.72;94346.53;5095990;28;20199;-68
2022/08/15 09:23:16;;;;;;;19.63;17.73;;;;;;;21.47;64.11;94347.25;5096802;28;20188;-68
2022/08/15 09:25:52;;;;;;;20.80;18.90;;;;;;;21.66;64.11;94350.34;5096645;28;20253;-68
2022/08/15 09:28:27;;;;;;;19.55;17.75;;;;;;;21.69;63.85;94352.28;5096785;28;20271;-68
2022/08/15 09:30:56;;;;;;;20.33;18.42;;;;;;;21.83;65.93;94347.06;5096387;28;20248;-68
2022/08/15 09:33:45;;;;;;;18.40;16.75;;;;;;;22.00;63.29;94332.97;5096334;28;20207;-68
2022/08/15 09:36:27;;;;;;;19.30;17.40;;;;;;;22.18;63.46;94338.09;5096552;28;20199;-68
2022/08/15 09:39:03;;;;;;;17.63;16.02;;;;;;;22.26;63.66;94334.66;5095986;28;20200;-68
2022/08/15 09:41:51;;;;;;;17.63;15.88;;;;;;;22.37;62.08;94334.31;5096270;28;20195;-68
2022/08/15 09:44:32;;;;;;;17.33;15.63;;;;;;;22.48;63.16;94340.41;5096083;28;20250;-68
2022/08/15 09:47:23;;;;;;;18.92;16.92;;;;;;;22.62;62.82;94330.72;5095519;28;20195;-68
2022/08/15 09:50:10;;;;;;;18.67;16.80;;;;;;;22.69;60.37;94333.31;5095274;28;20220;-68
2022/08/15 09:52:48;;;;;;;17.55;15.85;;;;;;;22.75;61.24;94339.19;5095505;28;20207;-68
2022/08/15 09:55:21;;;;;;;17.85;16.15;;;;;;;22.83;62.27;94327.25;5096275;28;20250;-68
2022/08/15 09:57:51;;;;;;;16.30;14.90;;;;;;;22.80;60.88;94333.78;5096161;28;20283;-68
2022/08/15 10:00:29;;;;;;;17.15;15.55;;;;;;;22.88;60.03;94327.94;5095095;28;20192;-68
2022/08/15 10:03:19;;;;;;;18.20;16.48;;;;;;;22.97;61.38;94330.88;5095286;28;20203;-68
2022/08/15 10:05:48;;;;;;;16.70;15.07;;;;;;;23.12;60.26;94323.53;5095046;28;20192;-68
2022/08/15 10:08:16;;;;;;;15.65;14.25;;;;;;;23.08;58.37;94327.72;5094942;28;20244;-68
2022/08/15 10:10:53;;;;;;;16.05;14.45;;;;;;;22.95;58.49;94331.34;5094957;28;20644;-68
2022/08/15 10:13:46;;;;;;;16.73;15.23;;;;;;;22.95;58.68;94327.72;5095660;28;20569;-68
2022/08/15 10:16:45;;;;;;;14.88;13.48;;;;;;;23.16;59.43;94321.41;5088397;28;20635;-68
2022/08/15 10:19:29;;;;;;;15.35;13.95;;;;;;;23.30;59.51;94315.28;5079420;28;20273;-68
2022/08/15 10:21:58;;;;;;;14.55;13.23;;;;;;;23.43;59.32;94312.44;5094770;28;20196;-68
2022/08/15 10:24:30;;;;;;;13.48;12.38;;;;;;;23.53;57.34;94311.31;5094867;28;20208;-68
2022/08/15 10:27:22;;;;;;;14.30;13.00;;;;;;;23.62;57.34;94302.13;5094829;28;20200;-68
2022/08/15 10:30:10;;;;;;;14.05;12.75;;;;;;;23.73;57.65;94305.38;5095114;28;20587;-68
2022/08/15 10:32:41;;;;;;;13.88;12.63;;;;;;;23.72;56.90;94306.63;5094723;28;20253;-68
2022/08/15 10:35:16;;;;;;;12.55;11.45;;;;;;;23.81;56.35;94300.28;5094356;28;20231;-68
2022/08/15 10:37:51;;;;;;;12.95;11.75;;;;;;;23.92;55.91;94303.50;5094395;28;20204;-68
2022/08/15 10:40:37;;;;;;;14.93;13.52;;;;;;;24.13;56.19;94295.50;5095460;28;20195;-68
2022/08/15 10:43:40;;;;;;;13.93;12.73;;;;;;;24.16;55.19;94303.03;5095246;28;20258;-68
2022/08/15 10:46:18;;;;;;;14.38;13.07;;;;;;;24.15;54.91;94307.13;5094937;28;20195;-68
2022/08/15 10:48:58;;;;;;;12.65;11.55;;;;;;;24.08;54.84;94293.28;5094345;28;20239;-68
2022/08/15 10:51:40;;;;;;;13.70;12.38;;;;;;;24.00;55.12;94287.13;5094546;28;20235;-68
2022/08/15 10:54:22;;;;;;;13.50;12.30;;;;;;;24.06;56.57;94290.91;5094442;28;20212;-68
2022/08/15 10:56:55;;;;;;;13.50;12.20;;;;;;;24.14;56.08;94295.03;5094157;28;20608;-68
2022/08/15 10:59:25;;;;;;;13.90;12.50;;;;;;;24.30;54.37;94291.22;5094711;28;20192;-68
2022/08/15 11:02:05;;;;;;;11.90;10.80;;;;;;;24.49;54.23;94298.56;5095050;28;20191;-68
2022/08/15 11:04:35;;;;;;;12.43;11.32;;;;;;;24.58;52.93;94291.38;5094205;28;20204;-68
2022/08/15 11:07:03;;;;;;;12.20;10.98;;;;;;;24.66;53.77;94287.06;5094626;28;20207;-68
2022/08/15 11:09:30;;;;;;;11.68;10.75;;;;;;;24.71;52.65;94292.09;5095245;28;20212;-68
2022/08/15 11:12:05;;;;;;;12.50;11.40;;;;;;;24.68;52.90;94290.97;5094752;28;20192;-68
2022/08/15 11:14:39;;;;;;;11.90;10.90;;;;;;;24.75;52.82;94281.44;5095138;28;20180;-68
2022/08/15 11:17:12;;;;;;;11.60;10.60;;;;;;;24.85;52.06;94288.69;5094489;28;20196;-68
2022/08/15 11:19:47;;;;;;;11.15;10.15;;;;;;;24.98;52.31;94294.19;5094743;28;20185;-68
2022/08/15 11:22:18;;;;;;;12.27;11.18;;;;;;;25.06;51.60;94287.03;5095964;28;20270;-68
2022/08/15 11:24:57;;;;;;;11.68;10.57;;;;;;;25.20;49.68;94289.31;5098654;28;20212;-68
2022/08/15 11:27:27;;;;;;;12.07;10.98;;;;;;;25.20;51.34;94283.66;5099115;28;20195;-68
2022/08/15 11:29:56;;;;;;;11.73;10.70;;;;;;;25.20;51.67;94286.47;5098172;28;20216;-68
2022/08/15 11:32:26;;;;;;;12.73;11.63;;;;;;;25.35;50.06;94283.06;5098054;28;20188;-68
2022/08/15 11:34:54;;;;;;;12.07;10.98;;;;;;;25.44;51.66;94283.06;5098271;28;20207;-68
2022/08/15 11:37:24;;;;;;;11.65;10.75;;;;;;;25.53;49.83;94277.44;5098970;28;20180;-68
2022/08/15 11:39:55;;;;;;;11.50;10.43;;;;;;;25.62;48.74;94277.41;5099009;28;20203;-68
2022/08/15 11:42:23;;;;;;;11.38;10.40;;;;;;;25.55;50.31;94265.66;5097975;28;20216;-68
2022/08/15 11:44:57;;;;;;;11.95;10.85;;;;;;;25.53;50.71;94268.97;5098708;28;20244;-68
2022/08/15 11:47:25;;;;;;;11.75;10.75;;;;;;;25.66;51.10;94280.09;5097912;28;20195;-68
2022/08/15 11:49:55;;;;;;;12.27;11.25;;;;;;;25.68;49.80;94271.94;5097643;28;20663;-68